Terminal Aerodrome Forecast
Issued by NWS

Home | Current Version | Previous Version | Text Only | Print | Product List | Glossary On
Versions: 1 2 3 4 5 6 7 8 9 10 11 12 13 14 15 16 17 18 19 20 21 22
798
FTUS41 KCAR 241138
TAFBHB
TAF
KBHB 241138Z 2412/2512 09008KT P6SM OVC003
      TEMPO 2412/2414 5SM BR
     FM241400 09008KT P6SM OVC008
     FM241600 09008KT P6SM OVC015
     FM241800 11008KT P6SM BKN025
     FM242000 13006KT P6SM VCSH OVC025
     FM250000 VRB03KT P6SM VCSH OVC010
     FM250300 VRB03KT 4SM BR OVC006
     FM250600 VRB03KT 1SM BR OVC003=

USA.gov is the U.S. government's official web portal to all federal, state and local government web resources and services.